createdAt,value
2022-12-23T00:01:24.451Z,99904.69
2022-12-23T00:03:29.978Z,99903.28
2022-12-23T00:05:38.267Z,99899.78
2022-12-23T00:07:45.210Z,99897.19
2022-12-23T00:09:49.239Z,99891.94
2022-12-23T00:12:06.708Z,99877.97
2022-12-23T00:14:27.558Z,99876.84
2022-12-23T00:16:31.513Z,99872.34
2022-12-23T00:18:36.058Z,99880.94
2022-12-23T00:20:39.842Z,99881.72
2022-12-23T00:23:02.785Z,99886.03
2022-12-23T00:25:07.131Z,99888.59
2022-12-23T00:27:10.990Z,99898.19
2022-12-23T00:29:14.635Z,99895.88
2022-12-23T00:31:19.707Z,99902.84
2022-12-23T00:33:25.461Z,99896.78
2022-12-23T00:35:32.592Z,99897.69
2022-12-23T00:37:36.285Z,99890.72
2022-12-23T00:39:55.478Z,99877.56
2022-12-23T00:42:17.024Z,99874.38
2022-12-23T00:44:20.912Z,99860.66
2022-12-23T00:46:24.795Z,99851.03
2022-12-23T00:49:00.437Z,99851.09
2022-12-23T00:51:04.577Z,99848.50
2022-12-23T00:53:09.114Z,99844.97
2022-12-23T00:55:14.408Z,99842.22
2022-12-23T00:57:18.130Z,99835.84
2022-12-23T00:59:21.698Z,99831.41
2022-12-23T01:01:43.133Z,99828.94
2022-12-23T01:04:04.350Z,99826.44
2022-12-23T01:06:08.444Z,99829.84
2022-12-23T01:08:14.110Z,99810.50
2022-12-23T01:10:19.536Z,99814.88
2022-12-23T01:12:24.226Z,99811.25
2022-12-23T01:14:28.777Z,99805.75
2022-12-23T01:16:32.664Z,99802.22
2022-12-23T01:18:36.893Z,99786.53
2022-12-23T01:20:40.672Z,99777.75
2022-12-23T01:22:43.947Z,99770.69
2022-12-23T01:24:47.269Z,99774.06
2022-12-23T01:26:52.043Z,99768.00
2022-12-23T01:28:56.182Z,99770.53
2022-12-23T01:31:01.755Z,99759.16
2022-12-23T01:33:05.299Z,99758.19
2022-12-23T01:35:08.963Z,99758.00
2022-12-23T01:37:12.513Z,99748.34
2022-12-23T01:39:15.776Z,99745.81
2022-12-23T01:41:40.962Z,99749.34
2022-12-23T01:43:47.728Z,99753.66
2022-12-23T01:45:51.375Z,99746.47
2022-12-23T01:47:58.249Z,99754.13
2022-12-23T01:50:07.504Z,99748.94
2022-12-23T01:52:12.037Z,99757.50
2022-12-23T01:54:15.440Z,99753.81
2022-12-23T01:56:24.043Z,99748.41
2022-12-23T01:58:31.132Z,99750.91
2022-12-23T02:00:53.910Z,99752.50
2022-12-23T02:03:14.885Z,99744.81
2022-12-23T02:05:18.843Z,99757.22
2022-12-23T02:07:40.071Z,99746.19
2022-12-23T02:09:43.323Z,99750.88
2022-12-23T02:12:25.044Z,99747.47
2022-12-23T02:14:59.271Z,99747.47
2022-12-23T02:17:11.460Z,99746.63
2022-12-23T02:19:19.142Z,99744.75
2022-12-23T02:21:52.061Z,99741.09
2022-12-23T02:24:41.702Z,99743.25
2022-12-23T02:27:16.574Z,99732.28
2022-12-23T02:29:48.305Z,99733.34
2022-12-23T02:31:59.230Z,99730.09
2022-12-23T02:34:08.175Z,99725.31
2022-12-23T02:36:26.660Z,99711.31
2022-12-23T02:38:36.708Z,99711.31
2022-12-23T02:40:44.807Z,99697.28
2022-12-23T02:42:55.304Z,99694.63
2022-12-23T02:45:04.723Z,99684.97
2022-12-23T02:47:13.167Z,99670.09
2022-12-23T02:49:21.760Z,99666.66
2022-12-23T02:51:33.776Z,99667.44
2022-12-23T02:53:41.760Z,99663.03
2022-12-23T02:55:48.282Z,99653.38
2022-12-23T02:57:55.240Z,99655.91
2022-12-23T03:00:00.295Z,99653.25
2022-12-23T03:02:03.693Z,99642.78
2022-12-23T03:04:08.608Z,99638.38
2022-12-23T03:06:20.948Z,99639.28
2022-12-23T03:08:28.754Z,99636.59
2022-12-23T03:10:39.890Z,99637.38
2022-12-23T03:12:55.353Z,99632.75
2022-12-23T03:15:18.967Z,99631.38
2022-12-23T03:17:43.661Z,99627.41
2022-12-23T03:19:55.294Z,99617.34
2022-12-23T03:22:04.579Z,99611.69
2022-12-23T03:24:18.771Z,99612.22
2022-12-23T03:26:28.719Z,99603.25
2022-12-23T03:28:38.001Z,99592.50
2022-12-23T03:30:44.522Z,99588.75
2022-12-23T03:32:52.776Z,99594.50
2022-12-23T03:35:01.079Z,99585.44
2022-12-23T03:37:07.929Z,99579.09
2022-12-23T03:39:17.441Z,99573.78
2022-12-23T03:41:27.945Z,99563.13
2022-12-23T03:43:36.732Z,99568.16
2022-12-23T03:45:44.640Z,99566.22
2022-12-23T03:47:54.048Z,99560.69
2022-12-23T03:50:02.345Z,99558.84
2022-12-23T03:52:17.170Z,99541.22
2022-12-23T03:54:28.717Z,99538.63
2022-12-23T03:56:36.268Z,99529.81
2022-12-23T03:58:44.762Z,99518.41
2022-12-23T04:00:54.499Z,99519.91
2022-12-23T04:03:04.396Z,99521.41
2022-12-23T04:05:20.748Z,99511.66
2022-12-23T04:07:28.988Z,99513.16
2022-12-23T04:09:32.303Z,99511.22
2022-12-23T04:11:37.702Z,99499.50
2022-12-23T04:13:41.224Z,99490.31
2022-12-23T04:15:45.018Z,99490.13
2022-12-23T04:17:48.958Z,99494.31
2022-12-23T04:19:53.264Z,99495.00
2022-12-23T04:21:58.816Z,99484.31
2022-12-23T04:24:02.116Z,99484.13
2022-12-23T04:26:05.690Z,99476.06
2022-12-23T04:28:08.994Z,99469.69
2022-12-23T04:30:14.600Z,99477.38
2022-12-23T04:32:17.827Z,99470.97
2022-12-23T04:34:21.085Z,99466.28
2022-12-23T04:36:24.526Z,99456.34
2022-12-23T04:38:29.246Z,99450.78
2022-12-23T04:40:32.480Z,99437.47
2022-12-23T04:42:35.980Z,99426.78
2022-12-23T04:44:39.316Z,99423.97
2022-12-23T04:46:42.858Z,99416.31
2022-12-23T04:48:46.140Z,99400.69
2022-12-23T04:50:49.481Z,99393.25
2022-12-23T04:52:52.928Z,99392.00
2022-12-23T04:54:57.585Z,99386.47
2022-12-23T04:57:00.856Z,99386.16
2022-12-23T04:59:04.549Z,99380.88
2022-12-23T05:01:10.004Z,99379.00
2022-12-23T05:03:13.486Z,99376.50
2022-12-23T05:05:17.117Z,99370.38
2022-12-23T05:07:20.417Z,99355.66
2022-12-23T05:09:23.796Z,99361.66
2022-12-23T05:11:28.776Z,99362.59
2022-12-23T05:13:32.133Z,99353.88
2022-12-23T05:15:35.463Z,99349.56
2022-12-23T05:17:38.710Z,99336.44
2022-12-23T05:19:42.071Z,99331.28
2022-12-23T05:21:45.324Z,99332.13
2022-12-23T05:23:48.535Z,99321.38
2022-12-23T05:25:53.639Z,99308.25
2022-12-23T05:27:58.363Z,99305.44
2022-12-23T05:30:01.752Z,99310.25
2022-12-23T05:32:05.618Z,99307.41
2022-12-23T05:34:09.097Z,99310.69
2022-12-23T05:36:13.808Z,99291.97
2022-12-23T05:38:17.064Z,99294.91
2022-12-23T05:40:24.527Z,99296.16
2022-12-23T05:42:32.680Z,99283.56
2022-12-23T05:44:37.388Z,99286.56
2022-12-23T05:46:40.636Z,99278.47
2022-12-23T05:48:43.940Z,99272.16
2022-12-23T05:50:50.173Z,99262.25
2022-12-23T05:52:55.969Z,99254.25
2022-12-23T05:54:59.180Z,99247.34
2022-12-23T05:57:02.919Z,99229.63
2022-12-23T05:59:06.644Z,99247.94
2022-12-23T06:01:11.969Z,99250.44
2022-12-23T06:03:15.822Z,99240.69
2022-12-23T06:05:19.736Z,99238.03
2022-12-23T06:07:23.299Z,99234.47
2022-12-23T06:09:26.989Z,99229.22
2022-12-23T06:11:30.695Z,99221.25
2022-12-23T06:13:34.227Z,99215.03
2022-12-23T06:15:37.790Z,99213.13
2022-12-23T06:17:42.911Z,99203.41
2022-12-23T06:19:47.549Z,99192.81
2022-12-23T06:21:51.288Z,99185.00
2022-12-23T06:23:54.801Z,99177.84
2022-12-23T06:26:01.630Z,99184.81
2022-12-23T06:28:05.387Z,99176.91
2022-12-23T06:30:10.424Z,99169.84
2022-12-23T06:32:14.658Z,99161.00
2022-12-23T06:34:20.262Z,99151.09
2022-12-23T06:36:26.744Z,99143.81
2022-12-23T06:38:30.605Z,99138.19
2022-12-23T06:40:34.310Z,99137.13
2022-12-23T06:42:37.971Z,99138.94
2022-12-23T06:44:41.543Z,99130.94
2022-12-23T06:46:45.159Z,99126.28
2022-12-23T06:48:49.134Z,99123.41
2022-12-23T06:50:54.309Z,99124.97
2022-12-23T06:52:57.919Z,99133.72
2022-12-23T06:55:01.524Z,99130.94
2022-12-23T06:57:05.219Z,99126.56
2022-12-23T06:59:08.815Z,99129.06
2022-12-23T07:01:12.806Z,99130.88
2022-12-23T07:03:16.966Z,99136.13
2022-12-23T07:05:20.901Z,99130.94
2022-12-23T07:07:25.954Z,99130.94
2022-12-23T07:09:29.500Z,99133.72
2022-12-23T07:11:33.114Z,99135.28
2022-12-23T07:13:37.011Z,99142.34
2022-12-23T07:15:41.221Z,99140.66
2022-12-23T07:17:45.133Z,99144.22
2022-12-23T07:19:48.965Z,99143.63
2022-12-23T07:21:52.480Z,99147.22
2022-12-23T07:23:58.172Z,99152.47
2022-12-23T07:26:01.688Z,99158.56
2022-12-23T07:28:05.529Z,99161.94
2022-12-23T07:30:10.455Z,99147.09
2022-12-23T07:32:14.019Z,99154.75
2022-12-23T07:34:17.875Z,99143.53
2022-12-23T07:36:21.325Z,99144.34
2022-12-23T07:38:24.949Z,99131.19
2022-12-23T07:40:30.017Z,99128.69
2022-12-23T07:42:44.886Z,99121.72
2022-12-23T07:44:49.050Z,99113.97
2022-12-23T07:46:52.680Z,99115.88
2022-12-23T07:48:56.380Z,99110.81
2022-12-23T07:51:03.102Z,99102.22
2022-12-23T07:53:07.094Z,99100.66
2022-12-23T07:55:11.645Z,99091.94
2022-12-23T07:57:17.243Z,99077.34
2022-12-23T07:59:21.440Z,99074.78
2022-12-23T08:01:26.064Z,99058.41
2022-12-23T08:03:31.202Z,99061.38
2022-12-23T08:05:36.238Z,99052.00
2022-12-23T08:07:40.872Z,99054.75
2022-12-23T08:09:48.296Z,99049.84
2022-12-23T08:11:52.953Z,99050.78
2022-12-23T08:13:58.635Z,99053.66
2022-12-23T08:16:04.005Z,99053.78
2022-12-23T08:18:08.149Z,99060.94
2022-12-23T08:20:13.012Z,99076.72
2022-12-23T08:22:17.778Z,99076.72
2022-12-23T08:24:21.983Z,99070.63
2022-12-23T08:26:26.995Z,99063.69
2022-12-23T08:28:31.151Z,99059.25
2022-12-23T08:30:36.419Z,99066.31
2022-12-23T08:32:40.620Z,99057.59
2022-12-23T08:34:44.599Z,99057.72
2022-12-23T08:36:48.581Z,99061.16
2022-12-23T08:38:53.258Z,99055.91
2022-12-23T08:40:57.118Z,99062.84
2022-12-23T08:43:01.003Z,99046.22
2022-12-23T08:45:04.956Z,99045.28
2022-12-23T08:47:09.971Z,99038.31
2022-12-23T08:49:14.109Z,99030.44
2022-12-23T08:51:19.503Z,99033.91
2022-12-23T08:53:23.045Z,99029.50
2022-12-23T08:55:26.959Z,99033.91
2022-12-23T08:57:31.487Z,99025.06
2022-12-23T08:59:35.608Z,99030.31
2022-12-23T09:01:41.490Z,99017.16
2022-12-23T09:03:47.279Z,99004.88
2022-12-23T09:05:51.262Z,99004.75
2022-12-23T09:07:55.462Z,99007.28
2022-12-23T09:09:59.301Z,98996.75
2022-12-23T09:12:02.906Z,98985.28
2022-12-23T09:14:08.759Z,98989.59
2022-12-23T09:16:13.190Z,98978.09
2022-12-23T09:18:16.924Z,98977.91
2022-12-23T09:20:22.296Z,98970.81
2022-12-23T09:22:26.169Z,98985.66
2022-12-23T09:24:29.796Z,98980.16
2022-12-23T09:26:33.703Z,98981.75
2022-12-23T09:28:37.704Z,98981.75
2022-12-23T09:30:41.363Z,98978.19
2022-12-23T09:32:44.993Z,98978.19
2022-12-23T09:34:48.420Z,98986.78
2022-12-23T09:36:55.408Z,98990.16
2022-12-23T09:39:00.024Z,98994.53
2022-12-23T09:41:05.462Z,98990.97
2022-12-23T09:43:22.323Z,98992.66
2022-12-23T09:45:41.041Z,98988.09
2022-12-23T09:47:45.934Z,98991.59
2022-12-23T09:49:53.947Z,98982.72
2022-12-23T09:52:05.297Z,98980.81
2022-12-23T09:54:17.434Z,98968.38
2022-12-23T09:56:29.051Z,98965.66
2022-12-23T09:58:41.964Z,98975.31
2022-12-23T10:00:56.999Z,98992.66
2022-12-23T10:03:13.554Z,98991.72
2022-12-23T10:05:26.027Z,98993.41
2022-12-23T10:07:37.506Z,98987.28
2022-12-23T10:09:44.288Z,98982.88
2022-12-23T10:11:52.363Z,98976.75
2022-12-23T10:13:59.845Z,98974.00
2022-12-23T10:16:06.365Z,98974.84
2022-12-23T10:18:22.166Z,98965.91
2022-12-23T10:20:40.927Z,98962.41
2022-12-23T10:22:47.678Z,98963.13
2022-12-23T10:24:52.029Z,98963.84
2022-12-23T10:26:57.732Z,98958.47
2022-12-23T10:29:18.376Z,98956.56
2022-12-23T10:31:41.751Z,98946.63
2022-12-23T10:33:56.245Z,98942.19
2022-12-23T10:36:06.225Z,98937.41
2022-12-23T10:38:27.412Z,98935.38
2022-12-23T10:40:40.196Z,98932.59
2022-12-23T10:42:53.275Z,98925.56
2022-12-23T10:45:16.945Z,98933.22
2022-12-23T10:47:32.570Z,98926.75
2022-12-23T10:49:49.384Z,98925.69
2022-12-23T10:51:58.883Z,98933.31
2022-12-23T10:54:10.944Z,98924.34
2022-12-23T10:56:16.591Z,98929.59
2022-12-23T10:58:21.816Z,98926.72
2022-12-23T11:00:26.715Z,98915.25
2022-12-23T11:02:48.678Z,98920.03
2022-12-23T11:04:52.466Z,98920.59
2022-12-23T11:07:26.312Z,98923.00
2022-12-23T11:09:25.413Z,98918.69
2022-12-23T11:11:54.744Z,98920.25
2022-12-23T11:13:58.536Z,98914.00
2022-12-23T11:16:15.213Z,98908.72
2022-12-23T11:18:21.464Z,98903.47
2022-12-23T11:20:25.227Z,98898.09
2022-12-23T11:22:29.204Z,98903.25
2022-12-23T11:24:41.340Z,98909.22
2022-12-23T11:26:49.387Z,98904.78
2022-12-23T11:28:59.880Z,98896.91
2022-12-23T11:31:08.875Z,98894.81
2022-12-23T11:33:22.841Z,98896.63
2022-12-23T11:35:29.091Z,98894.81
2022-12-23T11:37:38.421Z,98896.50
2022-12-23T11:39:48.381Z,98897.22
2022-12-23T11:41:54.861Z,98889.19
2022-12-23T11:44:02.433Z,98890.75
2022-12-23T11:46:17.306Z,98898.41
2022-12-23T11:48:30.173Z,98903.41
2022-12-23T11:50:37.192Z,98889.41
2022-12-23T11:52:52.856Z,98893.81
2022-12-23T11:54:59.945Z,98892.06
2022-12-23T11:57:06.139Z,98897.19
2022-12-23T11:59:28.423Z,98897.88
2022-12-23T12:01:32.463Z,98894.28
2022-12-23T12:03:45.299Z,98889.63
2022-12-23T12:05:51.489Z,98894.63
2022-12-23T12:08:01.636Z,98897.84
2022-12-23T12:10:12.303Z,98892.06
2022-12-23T12:12:19.619Z,98897.66
2022-12-23T12:14:31.370Z,98910.34
2022-12-23T12:16:49.631Z,98915.94
2022-12-23T12:18:56.129Z,98900.56
2022-12-23T12:21:05.660Z,98909.44
2022-12-23T12:23:15.588Z,98898.88
2022-12-23T12:25:23.556Z,98914.34
2022-12-23T12:27:35.107Z,98920.31
2022-12-23T12:29:43.364Z,98917.53
2022-12-23T12:31:50.873Z,98915.63
2022-12-23T12:33:59.235Z,98911.06
2022-12-23T12:36:13.124Z,98916.22
2022-12-23T12:38:23.178Z,98915.94
2022-12-23T12:40:35.720Z,98922.78
2022-12-23T12:42:42.881Z,98922.78
2022-12-23T12:44:57.026Z,98921.56
2022-12-23T12:47:28.022Z,98918.38
2022-12-23T12:49:37.422Z,98925.94
2022-12-23T12:51:48.122Z,98926.47
2022-12-23T12:54:05.506Z,98929.56
2022-12-23T12:56:20.768Z,98930.28
2022-12-23T12:58:26.094Z,98928.34
2022-12-23T13:00:31.116Z,98922.94
2022-12-23T13:03:02.365Z,98925.19
2022-12-23T13:05:22.242Z,98907.03
2022-12-23T13:07:37.731Z,98908.44
2022-12-23T13:09:52.377Z,98905.25
2022-12-23T13:12:06.104Z,98908.63
2022-12-23T13:14:21.103Z,98912.78
2022-12-23T13:16:35.124Z,98912.78
2022-12-23T13:18:46.684Z,98921.69
2022-12-23T13:20:56.971Z,98925.28
2022-12-23T13:23:34.262Z,98920.97
2022-12-23T13:25:40.039Z,98929.16
2022-12-23T13:27:50.609Z,98912.59
2022-12-23T13:30:13.446Z,98911.91
2022-12-23T13:32:30.243Z,98915.66
2022-12-23T13:34:43.210Z,98909.53
2022-12-23T13:36:55.493Z,98918.16
2022-12-23T13:39:17.188Z,98924.00
2022-12-23T13:41:28.571Z,98919.41
2022-12-23T13:43:44.988Z,98924.56
2022-12-23T13:45:51.009Z,98929.75
2022-12-23T13:48:11.306Z,98937.53
2022-12-23T13:50:20.662Z,98929.19
2022-12-23T13:52:35.738Z,98936.75
2022-12-23T13:54:51.644Z,98930.91
2022-12-23T13:57:08.618Z,98943.84
2022-12-23T13:59:15.854Z,98956.78
2022-12-23T14:01:34.430Z,98958.44
2022-12-23T14:03:40.305Z,98965.44
2022-12-23T14:05:46.005Z,98968.06
2022-12-23T14:07:49.475Z,98963.72
2022-12-23T14:09:58.712Z,98973.22
2022-12-23T14:12:22.206Z,98973.22
2022-12-23T14:14:28.565Z,98993.25
2022-12-23T14:16:43.367Z,98995.38
2022-12-23T14:19:08.730Z,99007.75
2022-12-23T14:21:21.605Z,99002.94
2022-12-23T14:23:37.717Z,99009.75
2022-12-23T14:26:04.591Z,99016.72
2022-12-23T14:28:21.867Z,99021.03
2022-12-23T14:30:35.567Z,99029.06
2022-12-23T14:32:45.447Z,99032.69
2022-12-23T14:35:18.184Z,99037.28
2022-12-23T14:37:37.008Z,99037.53
2022-12-23T14:39:40.440Z,99038.78
2022-12-23T14:41:51.115Z,99035.53
2022-12-23T14:44:00.387Z,99043.88
2022-12-23T14:46:07.497Z,99036.09
2022-12-23T14:49:09.683Z,99040.78
2022-12-23T14:51:25.113Z,99036.25
2022-12-23T14:53:30.130Z,99038.47
2022-12-23T14:55:45.526Z,99036.34
2022-12-23T14:57:51.915Z,99026.19
2022-12-23T15:00:03.130Z,99022.13
2022-12-23T15:02:22.463Z,99033.38
2022-12-23T15:04:30.833Z,99029.84
2022-12-23T15:06:39.687Z,99026.91
2022-12-23T15:08:45.559Z,99035.09
2022-12-23T15:10:50.715Z,99036.59
2022-12-23T15:12:59.127Z,99040.69
2022-12-23T15:15:06.997Z,99048.88
2022-12-23T15:17:26.597Z,99056.25
2022-12-23T15:19:30.937Z,99065.25
2022-12-23T15:21:37.259Z,99061.06
2022-12-23T15:23:51.096Z,99072.13
2022-12-23T15:25:59.282Z,99075.84
2022-12-23T15:28:05.037Z,99072.38
2022-12-23T15:30:14.919Z,99079.69
2022-12-23T15:32:21.646Z,99081.66
2022-12-23T15:34:29.817Z,99084.66
2022-12-23T15:36:37.414Z,99079.75
2022-12-23T15:38:41.930Z,99093.22
2022-12-23T15:40:58.345Z,99096.09
2022-12-23T15:43:03.402Z,99099.69
2022-12-23T15:45:32.418Z,99105.22
2022-12-23T15:47:42.020Z,99104.50
2022-12-23T15:49:46.907Z,99117.00
2022-12-23T15:52:16.520Z,99122.38
2022-12-23T15:54:25.631Z,99127.06
2022-12-23T15:56:32.870Z,99125.38
2022-12-23T15:58:40.603Z,99129.97
2022-12-23T16:00:53.707Z,99128.28
2022-12-23T16:03:02.442Z,99139.78
2022-12-23T16:05:09.321Z,99146.88
2022-12-23T16:07:25.796Z,99147.81
2022-12-23T16:09:38.267Z,99154.03
2022-12-23T16:11:51.659Z,99150.72
2022-12-23T16:13:58.352Z,99146.50
2022-12-23T16:16:31.282Z,99147.47
2022-12-23T16:18:47.320Z,99153.69
2022-12-23T16:20:54.913Z,99155.50
2022-12-23T16:23:02.604Z,99160.78
2022-12-23T16:25:14.346Z,99167.81
2022-12-23T16:27:29.507Z,99165.19
2022-12-23T16:29:35.014Z,99165.19
2022-12-23T16:31:44.295Z,99175.84
2022-12-23T16:33:55.132Z,99170.72
2022-12-23T16:36:17.009Z,99166.38
2022-12-23T16:38:22.979Z,99171.66
2022-12-23T16:40:27.922Z,99169.88
2022-12-23T16:42:31.565Z,99174.28
2022-12-23T16:44:35.586Z,99176.94
2022-12-23T16:46:41.955Z,99172.88
2022-12-23T16:48:51.869Z,99176.47
2022-12-23T16:50:57.764Z,99177.56
2022-12-23T16:53:01.408Z,99168.09
2022-12-23T16:55:07.763Z,99170.72
2022-12-23T16:57:12.090Z,99174.06
2022-12-23T16:59:16.159Z,99160.88
2022-12-23T17:01:25.302Z,99165.47
2022-12-23T17:03:29.136Z,99169.78
2022-12-23T17:05:33.095Z,99171.44
2022-12-23T17:07:44.862Z,99167.97
2022-12-23T17:09:49.495Z,99165.22
2022-12-23T17:11:55.541Z,99165.34
2022-12-23T17:14:04.721Z,99175.03
2022-12-23T17:16:15.804Z,99172.63
2022-12-23T17:18:20.118Z,99170.00
2022-12-23T17:20:25.903Z,99166.53
2022-12-23T17:22:31.369Z,99165.72
2022-12-23T17:24:37.289Z,99167.47
2022-12-23T17:26:41.573Z,99164.84
2022-12-23T17:28:45.960Z,99171.94
2022-12-23T17:30:54.171Z,99169.16
2022-12-23T17:33:00.085Z,99171.94
2022-12-23T17:35:04.394Z,99175.38
2022-12-23T17:37:16.121Z,99187.75
2022-12-23T17:39:20.341Z,99184.38
2022-12-23T17:41:29.430Z,99194.91
2022-12-23T17:43:33.175Z,99194.91
2022-12-23T17:45:37.088Z,99198.53
2022-12-23T17:47:41.252Z,99209.16
2022-12-23T17:49:46.123Z,99210.97
2022-12-23T17:51:49.971Z,99223.34
2022-12-23T17:53:58.000Z,99220.69
2022-12-23T17:56:02.897Z,99227.63
2022-12-23T17:58:08.323Z,99226.09
2022-12-23T18:00:17.258Z,99234.94
2022-12-23T18:02:30.841Z,99242.84
2022-12-23T18:04:35.201Z,99253.50
2022-12-23T18:06:39.402Z,99254.34
2022-12-23T18:08:44.060Z,99259.63
2022-12-23T18:10:48.467Z,99261.41
2022-12-23T18:12:56.282Z,99261.53
2022-12-23T18:15:03.513Z,99267.75
2022-12-23T18:17:07.682Z,99258.91
2022-12-23T18:19:18.091Z,99267.53
2022-12-23T18:21:28.867Z,99271.84
2022-12-23T18:23:37.556Z,99270.16
2022-12-23T18:25:47.707Z,99270.41
2022-12-23T18:27:55.464Z,99273.16
2022-12-23T18:30:02.905Z,99276.75
2022-12-23T18:32:07.617Z,99290.97
2022-12-23T18:34:17.977Z,99285.72
2022-12-23T18:36:26.487Z,99278.53
2022-12-23T18:38:30.189Z,99287.91
2022-12-23T18:40:33.785Z,99294.72
2022-12-23T18:42:37.669Z,99291.00
2022-12-23T18:44:41.888Z,99297.84
2022-12-23T18:46:46.952Z,99295.19
2022-12-23T18:48:51.795Z,99294.50
2022-12-23T18:50:55.372Z,99291.97
2022-12-23T18:53:00.134Z,99290.06
2022-12-23T18:55:03.696Z,99287.41
2022-12-23T18:57:08.485Z,99292.69
2022-12-23T18:59:18.566Z,99284.78
2022-12-23T19:01:24.112Z,99286.59
2022-12-23T19:03:31.354Z,99295.31
2022-12-23T19:05:35.225Z,99296.06
2022-12-23T19:07:39.143Z,99304.56
2022-12-23T19:09:42.774Z,99305.16
2022-12-23T19:11:49.246Z,99308.50
2022-12-23T19:13:52.934Z,99308.31
2022-12-23T19:15:56.615Z,99315.03
2022-12-23T19:18:00.419Z,99317.28
2022-12-23T19:20:06.355Z,99320.53
2022-12-23T19:22:10.166Z,99320.41
2022-12-23T19:24:14.502Z,99323.63
2022-12-23T19:26:18.424Z,99324.25
2022-12-23T19:28:22.553Z,99328.34
2022-12-23T19:30:26.557Z,99328.94
2022-12-23T19:32:30.649Z,99332.16
2022-12-23T19:34:34.745Z,99333.59
2022-12-23T19:36:41.276Z,99326.31
2022-12-23T19:38:46.304Z,99322.59
2022-12-23T19:40:58.722Z,99322.47
2022-12-23T19:43:02.595Z,99330.13
2022-12-23T19:45:07.717Z,99333.75
2022-12-23T19:47:11.489Z,99336.41
2022-12-23T19:49:19.926Z,99332.06
2022-12-23T19:51:24.359Z,99337.22
2022-12-23T19:53:29.893Z,99338.91
2022-12-23T19:55:33.556Z,99352.94
2022-12-23T19:57:37.300Z,99357.97
2022-12-23T19:59:41.179Z,99363.97
2022-12-23T20:01:45.030Z,99346.44
2022-12-23T20:03:50.011Z,99358.69
2022-12-23T20:05:53.867Z,99366.75
2022-12-23T20:07:57.772Z,99370.44
2022-12-23T20:10:03.094Z,99377.63
2022-12-23T20:12:08.173Z,99365.50
2022-12-23T20:14:13.251Z,99369.13
2022-12-23T20:16:17.442Z,99371.03
2022-12-23T20:18:21.158Z,99367.44
2022-12-23T20:20:25.161Z,99381.47
2022-12-23T20:22:29.037Z,99372.72
2022-12-23T20:24:33.483Z,99378.81
2022-12-23T20:26:38.992Z,99386.75
2022-12-23T20:28:42.589Z,99384.09
2022-12-23T20:30:48.571Z,99375.47
2022-12-23T20:32:52.223Z,99390.44
2022-12-23T20:34:57.509Z,99394.19
2022-12-23T20:37:03.057Z,99394.19
2022-12-23T20:39:07.062Z,99396.91
2022-12-23T20:41:13.517Z,99395.25
2022-12-23T20:43:18.547Z,99404.84
2022-12-23T20:45:22.403Z,99400.53
2022-12-23T20:47:26.497Z,99400.53
2022-12-23T20:49:30.406Z,99405.69
2022-12-23T20:51:34.433Z,99407.59
2022-12-23T20:53:38.255Z,99405.81
2022-12-23T20:55:42.466Z,99407.72
2022-12-23T20:57:46.417Z,99405.06
2022-12-23T20:59:51.739Z,99408.66
2022-12-23T21:01:55.502Z,99412.16
2022-12-23T21:04:01.673Z,99420.31
2022-12-23T21:06:05.606Z,99414.19
2022-12-23T21:08:09.900Z,99411.66
2022-12-23T21:10:15.463Z,99423.28
2022-12-23T21:12:19.009Z,99434.69
2022-12-23T21:14:23.243Z,99433.84
2022-12-23T21:16:29.388Z,99437.41
2022-12-23T21:18:35.007Z,99444.38
2022-12-23T21:20:39.460Z,99438.28
2022-12-23T21:22:43.224Z,99433.00
2022-12-23T21:24:46.904Z,99441.63
2022-12-23T21:26:56.508Z,99437.09
2022-12-23T21:29:04.072Z,99440.44
2022-12-23T21:31:08.325Z,99433.50
2022-12-23T21:33:13.992Z,99433.50
2022-12-23T21:35:17.969Z,99443.19
2022-12-23T21:37:21.812Z,99442.38
2022-12-23T21:39:25.681Z,99443.31
2022-12-23T21:41:31.054Z,99436.59
2022-12-23T21:43:35.047Z,99441.16
2022-12-23T21:45:38.579Z,99442.09
2022-12-23T21:47:43.153Z,99444.88
2022-12-23T21:49:48.137Z,99452.88
2022-12-23T21:51:51.978Z,99458.13
2022-12-23T21:53:57.407Z,99465.34
2022-12-23T21:56:05.455Z,99471.44
2022-12-23T21:58:08.988Z,99470.63
2022-12-23T22:00:13.528Z,99476.72
2022-12-23T22:02:17.799Z,99478.41
2022-12-23T22:04:21.368Z,99490.66
2022-12-23T22:06:28.409Z,99495.06
2022-12-23T22:08:32.008Z,99492.53
2022-12-23T22:10:38.870Z,99493.41
2022-12-23T22:12:42.384Z,99494.34
2022-12-23T22:14:46.785Z,99496.16
2022-12-23T22:16:50.357Z,99493.59
2022-12-23T22:18:54.939Z,99502.50
2022-12-23T22:20:58.548Z,99501.75
2022-12-23T22:23:03.986Z,99513.25
2022-12-23T22:25:08.097Z,99530.16
2022-12-23T22:27:11.650Z,99531.09
2022-12-23T22:29:15.622Z,99537.22
2022-12-23T22:31:22.686Z,99531.22
2022-12-23T22:33:26.621Z,99531.22
2022-12-23T22:35:30.254Z,99538.28
2022-12-23T22:37:34.700Z,99540.91
2022-12-23T22:39:41.123Z,99540.06
2022-12-23T22:41:46.066Z,99541.88
2022-12-23T22:43:50.100Z,99541.97
2022-12-23T22:45:57.939Z,99552.50
2022-12-23T22:48:02.537Z,99552.50
2022-12-23T22:50:08.535Z,99557.78
2022-12-23T22:52:12.191Z,99557.78
2022-12-23T22:54:15.925Z,99550.84
2022-12-23T22:56:22.899Z,99554.44
2022-12-23T22:58:27.160Z,99554.78
2022-12-23T23:00:31.053Z,99551.28
2022-12-23T23:02:34.742Z,99550.56
2022-12-23T23:04:38.344Z,99554.16
2022-12-23T23:06:43.421Z,99555.31
2022-12-23T23:08:47.289Z,99547.66
2022-12-23T23:10:50.760Z,99552.28
2022-12-23T23:12:56.094Z,99554.28
2022-12-23T23:15:00.045Z,99552.81
2022-12-23T23:17:03.875Z,99559.25
2022-12-23T23:19:09.668Z,99558.78
2022-12-23T23:21:14.557Z,99566.88
2022-12-23T23:23:18.911Z,99562.78
2022-12-23T23:25:25.128Z,99571.84
2022-12-23T23:27:29.040Z,99576.50
2022-12-23T23:29:34.216Z,99575.88
2022-12-23T23:31:42.373Z,99576.09
2022-12-23T23:33:47.413Z,99583.34
2022-12-23T23:35:55.998Z,99578.31
2022-12-23T23:37:59.681Z,99587.25
2022-12-23T23:40:03.265Z,99591.06
2022-12-23T23:42:07.506Z,99594.63
2022-12-23T23:44:12.042Z,99593.91
2022-12-23T23:46:17.218Z,99600.00
2022-12-23T23:48:21.456Z,99596.44
2022-12-23T23:50:24.974Z,99602.53
2022-12-23T23:52:29.887Z,99599.88
2022-12-23T23:54:33.464Z,99603.38
2022-12-23T23:56:39.104Z,99613.81
2022-12-23T23:58:43.181Z,99607.56
